sensor_id;sensor_type;location;lat;lon;timestamp;temperature;humidity
21294;DHT22;10806;52.250;21.066;2022-08-25T00:00:44;27.00;78.90
21294;DHT22;10806;52.250;21.066;2022-08-25T00:03:11;27.10;78.20
21294;DHT22;10806;52.250;21.066;2022-08-25T00:05:38;27.00;78.20
21294;DHT22;10806;52.250;21.066;2022-08-25T00:08:04;27.00;78.20
21294;DHT22;10806;52.250;21.066;2022-08-25T00:10:32;27.10;78.20
21294;DHT22;10806;52.250;21.066;2022-08-25T00:12:59;27.00;78.20
21294;DHT22;10806;52.250;21.066;2022-08-25T00:15:25;27.00;78.10
21294;DHT22;10806;52.250;21.066;2022-08-25T00:17:51;27.00;78.10
21294;DHT22;10806;52.250;21.066;2022-08-25T00:20:17;27.00;78.10
21294;DHT22;10806;52.250;21.066;2022-08-25T00:22:43;27.00;78.10
21294;DHT22;10806;52.250;21.066;2022-08-25T00:25:09;27.00;78.10
21294;DHT22;10806;52.250;21.066;2022-08-25T00:27:35;27.00;78.10
21294;DHT22;10806;52.250;21.066;2022-08-25T00:30:02;27.00;78.10
21294;DHT22;10806;52.250;21.066;2022-08-25T00:32:27;27.00;78.10
21294;DHT22;10806;52.250;21.066;2022-08-25T00:34:53;27.10;78.10
21294;DHT22;10806;52.250;21.066;2022-08-25T00:37:18;27.00;78.10
21294;DHT22;10806;52.250;21.066;2022-08-25T00:39:44;27.00;78.00
21294;DHT22;10806;52.250;21.066;2022-08-25T00:42:10;27.00;78.10
21294;DHT22;10806;52.250;21.066;2022-08-25T00:44:37;27.00;78.10
21294;DHT22;10806;52.250;21.066;2022-08-25T00:47:04;27.00;78.00
21294;DHT22;10806;52.250;21.066;2022-08-25T00:49:32;27.00;78.00
21294;DHT22;10806;52.250;21.066;2022-08-25T00:52:26;27.00;77.90
21294;DHT22;10806;52.250;21.066;2022-08-25T00:55:05;27.00;77.90
21294;DHT22;10806;52.250;21.066;2022-08-25T00:57:47;27.00;77.90
21294;DHT22;10806;52.250;21.066;2022-08-25T01:00:19;27.00;77.90
21294;DHT22;10806;52.250;21.066;2022-08-25T01:02:46;27.00;77.80
21294;DHT22;10806;52.250;21.066;2022-08-25T01:05:12;27.00;77.80
21294;DHT22;10806;52.250;21.066;2022-08-25T01:07:38;27.00;77.80
21294;DHT22;10806;52.250;21.066;2022-08-25T01:10:07;27.00;77.80
21294;DHT22;10806;52.250;21.066;2022-08-25T01:12:33;27.00;77.70
21294;DHT22;10806;52.250;21.066;2022-08-25T01:15:01;27.00;77.70
21294;DHT22;10806;52.250;21.066;2022-08-25T01:17:47;27.00;77.70
21294;DHT22;10806;52.250;21.066;2022-08-25T01:20:15;27.00;77.60
21294;DHT22;10806;52.250;21.066;2022-08-25T01:22:41;27.00;77.60
21294;DHT22;10806;52.250;21.066;2022-08-25T01:25:21;27.00;77.50
21294;DHT22;10806;52.250;21.066;2022-08-25T01:27:48;27.10;77.40
21294;DHT22;10806;52.250;21.066;2022-08-25T01:30:14;27.00;77.40
21294;DHT22;10806;52.250;21.066;2022-08-25T01:32:39;27.00;77.40
21294;DHT22;10806;52.250;21.066;2022-08-25T01:35:05;27.00;77.40
21294;DHT22;10806;52.250;21.066;2022-08-25T01:37:34;27.00;77.40
21294;DHT22;10806;52.250;21.066;2022-08-25T01:39:59;27.00;77.40
21294;DHT22;10806;52.250;21.066;2022-08-25T01:42:57;27.00;77.40
21294;DHT22;10806;52.250;21.066;2022-08-25T01:45:27;27.10;77.30
21294;DHT22;10806;52.250;21.066;2022-08-25T01:47:53;27.10;77.30
21294;DHT22;10806;52.250;21.066;2022-08-25T01:50:19;27.10;77.40
21294;DHT22;10806;52.250;21.066;2022-08-25T01:53:32;27.00;77.30
21294;DHT22;10806;52.250;21.066;2022-08-25T01:55:39;27.10;77.30
21294;DHT22;10806;52.250;21.066;2022-08-25T01:58:27;27.00;77.20
21294;DHT22;10806;52.250;21.066;2022-08-25T02:00:54;27.10;77.30
21294;DHT22;10806;52.250;21.066;2022-08-25T02:03:22;27.10;77.20
21294;DHT22;10806;52.250;21.066;2022-08-25T02:05:48;27.10;77.10
21294;DHT22;10806;52.250;21.066;2022-08-25T02:08:13;27.10;77.30
21294;DHT22;10806;52.250;21.066;2022-08-25T02:10:40;27.00;77.30
21294;DHT22;10806;52.250;21.066;2022-08-25T02:13:06;27.00;77.20
21294;DHT22;10806;52.250;21.066;2022-08-25T02:15:32;27.10;77.40
21294;DHT22;10806;52.250;21.066;2022-08-25T02:17:58;27.10;78.00
21294;DHT22;10806;52.250;21.066;2022-08-25T02:20:24;27.10;77.10
21294;DHT22;10806;52.250;21.066;2022-08-25T02:22:50;27.10;77.20
21294;DHT22;10806;52.250;21.066;2022-08-25T02:25:17;27.00;77.20
21294;DHT22;10806;52.250;21.066;2022-08-25T02:27:44;27.00;77.30
21294;DHT22;10806;52.250;21.066;2022-08-25T02:30:10;27.00;77.30
21294;DHT22;10806;52.250;21.066;2022-08-25T02:32:38;27.00;77.30
21294;DHT22;10806;52.250;21.066;2022-08-25T02:35:04;27.00;77.10
21294;DHT22;10806;52.250;21.066;2022-08-25T02:37:30;27.10;77.10
21294;DHT22;10806;52.250;21.066;2022-08-25T02:39:56;27.00;77.10
21294;DHT22;10806;52.250;21.066;2022-08-25T02:42:22;27.00;77.20
21294;DHT22;10806;52.250;21.066;2022-08-25T02:44:49;27.10;77.10
21294;DHT22;10806;52.250;21.066;2022-08-25T02:47:14;27.10;77.00
21294;DHT22;10806;52.250;21.066;2022-08-25T02:49:41;27.10;77.00
21294;DHT22;10806;52.250;21.066;2022-08-25T02:52:06;27.10;77.00
21294;DHT22;10806;52.250;21.066;2022-08-25T02:54:32;27.00;77.10
21294;DHT22;10806;52.250;21.066;2022-08-25T02:56:58;27.00;77.00
21294;DHT22;10806;52.250;21.066;2022-08-25T02:59:24;27.10;77.00
21294;DHT22;10806;52.250;21.066;2022-08-25T03:01:50;27.10;77.10
21294;DHT22;10806;52.250;21.066;2022-08-25T03:04:15;27.10;77.00
21294;DHT22;10806;52.250;21.066;2022-08-25T03:06:41;27.10;77.00
21294;DHT22;10806;52.250;21.066;2022-08-25T03:09:07;27.10;77.00
21294;DHT22;10806;52.250;21.066;2022-08-25T03:11:33;27.10;76.90
21294;DHT22;10806;52.250;21.066;2022-08-25T03:13:59;27.10;77.00
21294;DHT22;10806;52.250;21.066;2022-08-25T03:16:25;27.10;77.00
21294;DHT22;10806;52.250;21.066;2022-08-25T03:18:51;27.10;77.00
21294;DHT22;10806;52.250;21.066;2022-08-25T03:21:17;27.10;76.90
21294;DHT22;10806;52.250;21.066;2022-08-25T03:23:44;27.10;76.80
21294;DHT22;10806;52.250;21.066;2022-08-25T03:26:09;27.10;76.70
21294;DHT22;10806;52.250;21.066;2022-08-25T03:28:54;27.10;77.60
21294;DHT22;10806;52.250;21.066;2022-08-25T03:31:22;27.10;76.90
21294;DHT22;10806;52.250;21.066;2022-08-25T03:33:47;27.00;76.90
21294;DHT22;10806;52.250;21.066;2022-08-25T03:36:13;27.00;76.90
21294;DHT22;10806;52.250;21.066;2022-08-25T03:38:39;27.00;76.90
21294;DHT22;10806;52.250;21.066;2022-08-25T03:41:14;27.10;76.90
21294;DHT22;10806;52.250;21.066;2022-08-25T03:43:40;27.10;76.90
21294;DHT22;10806;52.250;21.066;2022-08-25T03:46:06;27.10;76.90
21294;DHT22;10806;52.250;21.066;2022-08-25T03:48:32;27.10;76.90
21294;DHT22;10806;52.250;21.066;2022-08-25T03:50:57;27.10;76.90
21294;DHT22;10806;52.250;21.066;2022-08-25T03:53:23;27.10;77.00
21294;DHT22;10806;52.250;21.066;2022-08-25T03:55:48;27.00;76.70
21294;DHT22;10806;52.250;21.066;2022-08-25T03:58:14;27.10;76.90
21294;DHT22;10806;52.250;21.066;2022-08-25T04:00:40;27.10;77.70
21294;DHT22;10806;52.250;21.066;2022-08-25T04:03:06;27.10;76.90
21294;DHT22;10806;52.250;21.066;2022-08-25T04:05:32;27.10;76.90
21294;DHT22;10806;52.250;21.066;2022-08-25T04:07:57;27.10;76.80
21294;DHT22;10806;52.250;21.066;2022-08-25T04:10:23;27.10;76.80
21294;DHT22;10806;52.250;21.066;2022-08-25T04:12:48;27.00;76.90
21294;DHT22;10806;52.250;21.066;2022-08-25T04:15:14;27.00;76.80
21294;DHT22;10806;52.250;21.066;2022-08-25T04:17:40;27.00;76.80
21294;DHT22;10806;52.250;21.066;2022-08-25T04:20:09;27.10;76.80
21294;DHT22;10806;52.250;21.066;2022-08-25T04:22:35;27.10;76.80
21294;DHT22;10806;52.250;21.066;2022-08-25T04:25:02;27.10;76.90
21294;DHT22;10806;52.250;21.066;2022-08-25T04:27:28;27.00;76.70
21294;DHT22;10806;52.250;21.066;2022-08-25T04:29:53;27.10;76.90
21294;DHT22;10806;52.250;21.066;2022-08-25T04:32:19;27.00;76.70
21294;DHT22;10806;52.250;21.066;2022-08-25T04:34:45;27.10;76.80
21294;DHT22;10806;52.250;21.066;2022-08-25T04:37:10;27.10;76.90
21294;DHT22;10806;52.250;21.066;2022-08-25T04:39:36;27.10;76.90
21294;DHT22;10806;52.250;21.066;2022-08-25T04:42:02;27.10;76.70
21294;DHT22;10806;52.250;21.066;2022-08-25T04:44:29;27.10;76.70
21294;DHT22;10806;52.250;21.066;2022-08-25T04:46:55;27.10;76.80
21294;DHT22;10806;52.250;21.066;2022-08-25T04:49:20;27.10;76.80
21294;DHT22;10806;52.250;21.066;2022-08-25T04:51:46;27.10;76.80
21294;DHT22;10806;52.250;21.066;2022-08-25T04:54:14;27.10;76.70
21294;DHT22;10806;52.250;21.066;2022-08-25T04:56:46;27.00;76.80
21294;DHT22;10806;52.250;21.066;2022-08-25T04:59:14;27.10;76.90
21294;DHT22;10806;52.250;21.066;2022-08-25T05:01:40;27.10;76.70
21294;DHT22;10806;52.250;21.066;2022-08-25T05:04:09;27.10;76.70
21294;DHT22;10806;52.250;21.066;2022-08-25T05:06:36;27.10;76.70
21294;DHT22;10806;52.250;21.066;2022-08-25T05:09:03;27.00;76.60
21294;DHT22;10806;52.250;21.066;2022-08-25T05:11:29;27.00;76.70
21294;DHT22;10806;52.250;21.066;2022-08-25T05:13:56;27.00;76.70
21294;DHT22;10806;52.250;21.066;2022-08-25T05:16:23;27.10;76.60
21294;DHT22;10806;52.250;21.066;2022-08-25T05:18:50;27.10;76.60
21294;DHT22;10806;52.250;21.066;2022-08-25T05:21:18;27.00;76.60
21294;DHT22;10806;52.250;21.066;2022-08-25T05:23:45;27.10;76.60
21294;DHT22;10806;52.250;21.066;2022-08-25T05:26:20;27.00;76.60
21294;DHT22;10806;52.250;21.066;2022-08-25T05:28:48;27.10;76.60
21294;DHT22;10806;52.250;21.066;2022-08-25T05:31:14;27.10;76.50
21294;DHT22;10806;52.250;21.066;2022-08-25T05:33:40;27.10;76.60
21294;DHT22;10806;52.250;21.066;2022-08-25T05:36:07;27.10;76.60
21294;DHT22;10806;52.250;21.066;2022-08-25T05:38:33;27.00;76.50
21294;DHT22;10806;52.250;21.066;2022-08-25T05:41:01;27.00;76.50
21294;DHT22;10806;52.250;21.066;2022-08-25T05:43:27;27.00;76.50
21294;DHT22;10806;52.250;21.066;2022-08-25T05:45:56;27.00;76.40
21294;DHT22;10806;52.250;21.066;2022-08-25T05:48:23;27.10;76.40
21294;DHT22;10806;52.250;21.066;2022-08-25T05:50:51;27.00;76.50
21294;DHT22;10806;52.250;21.066;2022-08-25T05:53:24;27.10;76.50
21294;DHT22;10806;52.250;21.066;2022-08-25T05:55:51;27.00;76.40
21294;DHT22;10806;52.250;21.066;2022-08-25T05:58:17;27.00;76.50
21294;DHT22;10806;52.250;21.066;2022-08-25T06:00:43;27.00;76.40
21294;DHT22;10806;52.250;21.066;2022-08-25T06:03:08;27.00;76.40
21294;DHT22;10806;52.250;21.066;2022-08-25T06:05:34;27.00;76.30
21294;DHT22;10806;52.250;21.066;2022-08-25T06:08:00;27.00;76.20
21294;DHT22;10806;52.250;21.066;2022-08-25T06:10:26;27.00;77.00
21294;DHT22;10806;52.250;21.066;2022-08-25T06:12:52;27.00;76.20
21294;DHT22;10806;52.250;21.066;2022-08-25T06:15:20;27.00;76.20
21294;DHT22;10806;52.250;21.066;2022-08-25T06:17:47;27.00;76.10
21294;DHT22;10806;52.250;21.066;2022-08-25T06:20:24;27.00;76.10
21294;DHT22;10806;52.250;21.066;2022-08-25T06:22:51;27.00;76.80
21294;DHT22;10806;52.250;21.066;2022-08-25T06:25:19;27.00;76.00
21294;DHT22;10806;52.250;21.066;2022-08-25T06:27:45;27.10;75.90
21294;DHT22;10806;52.250;21.066;2022-08-25T06:30:13;27.00;75.90
21294;DHT22;10806;52.250;21.066;2022-08-25T06:32:40;27.10;75.90
21294;DHT22;10806;52.250;21.066;2022-08-25T06:35:09;27.10;75.90
21294;DHT22;10806;52.250;21.066;2022-08-25T06:37:35;27.10;75.90
21294;DHT22;10806;52.250;21.066;2022-08-25T06:40:01;27.10;75.90
21294;DHT22;10806;52.250;21.066;2022-08-25T06:42:27;27.10;75.80
21294;DHT22;10806;52.250;21.066;2022-08-25T06:44:53;27.10;75.80
21294;DHT22;10806;52.250;21.066;2022-08-25T06:47:18;27.10;75.80
21294;DHT22;10806;52.250;21.066;2022-08-25T06:49:44;27.10;75.70
21294;DHT22;10806;52.250;21.066;2022-08-25T06:52:11;27.10;75.70
21294;DHT22;10806;52.250;21.066;2022-08-25T06:54:37;27.10;75.60
21294;DHT22;10806;52.250;21.066;2022-08-25T06:57:03;27.10;75.60
21294;DHT22;10806;52.250;21.066;2022-08-25T06:59:29;27.10;75.60
21294;DHT22;10806;52.250;21.066;2022-08-25T07:01:54;27.10;76.10
21294;DHT22;10806;52.250;21.066;2022-08-25T07:04:20;27.10;76.30
21294;DHT22;10806;52.250;21.066;2022-08-25T07:06:46;27.10;76.40
21294;DHT22;10806;52.250;21.066;2022-08-25T07:09:12;27.10;76.50
21294;DHT22;10806;52.250;21.066;2022-08-25T07:11:39;27.10;76.60
21294;DHT22;10806;52.250;21.066;2022-08-25T07:14:07;27.10;76.80
21294;DHT22;10806;52.250;21.066;2022-08-25T07:16:34;27.10;77.50
21294;DHT22;10806;52.250;21.066;2022-08-25T07:19:01;27.10;76.80
21294;DHT22;10806;52.250;21.066;2022-08-25T07:21:30;27.10;76.70
21294;DHT22;10806;52.250;21.066;2022-08-25T07:23:56;27.10;77.10
21294;DHT22;10806;52.250;21.066;2022-08-25T07:26:28;27.10;77.10
21294;DHT22;10806;52.250;21.066;2022-08-25T07:28:55;27.10;77.10
21294;DHT22;10806;52.250;21.066;2022-08-25T07:31:21;27.10;77.00
21294;DHT22;10806;52.250;21.066;2022-08-25T07:33:46;27.10;77.00
21294;DHT22;10806;52.250;21.066;2022-08-25T07:36:32;27.20;77.10
21294;DHT22;10806;52.250;21.066;2022-08-25T07:38:58;27.10;77.00
21294;DHT22;10806;52.250;21.066;2022-08-25T07:41:25;27.20;77.10
21294;DHT22;10806;52.250;21.066;2022-08-25T07:43:51;27.20;77.10
21294;DHT22;10806;52.250;21.066;2022-08-25T07:46:17;27.20;77.00
21294;DHT22;10806;52.250;21.066;2022-08-25T07:48:43;27.20;77.00
21294;DHT22;10806;52.250;21.066;2022-08-25T07:51:10;27.20;77.00
21294;DHT22;10806;52.250;21.066;2022-08-25T07:53:37;27.20;76.90
21294;DHT22;10806;52.250;21.066;2022-08-25T07:56:12;27.20;76.90
21294;DHT22;10806;52.250;21.066;2022-08-25T07:58:38;27.20;76.90
21294;DHT22;10806;52.250;21.066;2022-08-25T08:01:04;27.20;76.90
21294;DHT22;10806;52.250;21.066;2022-08-25T08:03:30;27.20;76.90
21294;DHT22;10806;52.250;21.066;2022-08-25T08:05:59;27.20;77.00
21294;DHT22;10806;52.250;21.066;2022-08-25T08:08:25;27.20;75.00
21294;DHT22;10806;52.250;21.066;2022-08-25T08:10:51;27.30;71.20
21294;DHT22;10806;52.250;21.066;2022-08-25T08:13:17;27.30;71.60
21294;DHT22;10806;52.250;21.066;2022-08-25T08:15:43;27.40;69.30
21294;DHT22;10806;52.250;21.066;2022-08-25T08:18:09;27.40;69.10
21294;DHT22;10806;52.250;21.066;2022-08-25T08:20:36;27.40;69.20
21294;DHT22;10806;52.250;21.066;2022-08-25T08:23:02;27.30;68.80
21294;DHT22;10806;52.250;21.066;2022-08-25T08:25:28;27.30;68.90
21294;DHT22;10806;52.250;21.066;2022-08-25T08:27:55;27.30;68.80
21294;DHT22;10806;52.250;21.066;2022-08-25T08:30:22;27.40;68.40
21294;DHT22;10806;52.250;21.066;2022-08-25T08:32:47;27.30;70.20
21294;DHT22;10806;52.250;21.066;2022-08-25T08:35:15;27.40;68.70
21294;DHT22;10806;52.250;21.066;2022-08-25T08:37:44;27.40;68.70
21294;DHT22;10806;52.250;21.066;2022-08-25T08:40:13;27.40;68.10
21294;DHT22;10806;52.250;21.066;2022-08-25T08:43:04;27.40;67.90
21294;DHT22;10806;52.250;21.066;2022-08-25T08:45:35;27.40;67.30
21294;DHT22;10806;52.250;21.066;2022-08-25T08:48:22;27.40;66.10
21294;DHT22;10806;52.250;21.066;2022-08-25T08:53:43;27.40;66.80
21294;DHT22;10806;52.250;21.066;2022-08-25T08:56:14;27.40;68.40
21294;DHT22;10806;52.250;21.066;2022-08-25T08:58:56;27.40;67.90
21294;DHT22;10806;52.250;21.066;2022-08-25T09:01:27;27.40;67.90
21294;DHT22;10806;52.250;21.066;2022-08-25T09:04:04;27.40;67.90
21294;DHT22;10806;52.250;21.066;2022-08-25T09:06:51;27.40;67.80
21294;DHT22;10806;52.250;21.066;2022-08-25T09:09:25;27.40;68.30
21294;DHT22;10806;52.250;21.066;2022-08-25T09:23:54;27.50;68.50
21294;DHT22;10806;52.250;21.066;2022-08-25T09:26:02;27.50;68.90
21294;DHT22;10806;52.250;21.066;2022-08-25T09:28:48;27.50;68.70
21294;DHT22;10806;52.250;21.066;2022-08-25T09:31:47;27.50;69.90
21294;DHT22;10806;52.250;21.066;2022-08-25T09:34:19;27.40;70.30
21294;DHT22;10806;52.250;21.066;2022-08-25T09:36:45;27.50;66.10
21294;DHT22;10806;52.250;21.066;2022-08-25T09:39:13;27.50;65.30
21294;DHT22;10806;52.250;21.066;2022-08-25T09:44:37;27.50;63.60
21294;DHT22;10806;52.250;21.066;2022-08-25T09:47:06;27.60;60.60
21294;DHT22;10806;52.250;21.066;2022-08-25T09:49:44;27.60;62.20
21294;DHT22;10806;52.250;21.066;2022-08-25T09:52:39;27.60;61.70
21294;DHT22;10806;52.250;21.066;2022-08-25T09:57:52;27.60;60.60
21294;DHT22;10806;52.250;21.066;2022-08-25T10:00:27;27.60;60.60
21294;DHT22;10806;52.250;21.066;2022-08-25T10:03:20;27.70;59.60
21294;DHT22;10806;52.250;21.066;2022-08-25T10:06:04;27.60;58.60
21294;DHT22;10806;52.250;21.066;2022-08-25T10:11:05;27.70;59.40
21294;DHT22;10806;52.250;21.066;2022-08-25T10:13:45;27.70;59.40
21294;DHT22;10806;52.250;21.066;2022-08-25T10:16:21;27.70;59.70
21294;DHT22;10806;52.250;21.066;2022-08-25T10:21:27;27.60;59.00
21294;DHT22;10806;52.250;21.066;2022-08-25T10:23:53;27.60;59.70
21294;DHT22;10806;52.250;21.066;2022-08-25T10:29:15;27.60;57.40
21294;DHT22;10806;52.250;21.066;2022-08-25T10:31:50;27.50;56.10
21294;DHT22;10806;52.250;21.066;2022-08-25T10:34:38;27.50;57.10
21294;DHT22;10806;52.250;21.066;2022-08-25T10:45:41;27.50;54.40
21294;DHT22;10806;52.250;21.066;2022-08-25T10:56:42;27.50;61.80
21294;DHT22;10806;52.250;21.066;2022-08-25T11:04:52;27.40;62.90
21294;DHT22;10806;52.250;21.066;2022-08-25T11:07:36;27.40;63.10
21294;DHT22;10806;52.250;21.066;2022-08-25T11:10:10;27.40;64.30
21294;DHT22;10806;52.250;21.066;2022-08-25T11:12:49;27.40;64.60
21294;DHT22;10806;52.250;21.066;2022-08-25T11:15:24;27.40;65.80
21294;DHT22;10806;52.250;21.066;2022-08-25T11:17:54;27.40;65.80
21294;DHT22;10806;52.250;21.066;2022-08-25T11:23:30;27.40;66.80
21294;DHT22;10806;52.250;21.066;2022-08-25T11:26:03;27.40;67.90
21294;DHT22;10806;52.250;21.066;2022-08-25T11:28:36;27.40;69.10
21294;DHT22;10806;52.250;21.066;2022-08-25T11:31:04;27.50;67.70
21294;DHT22;10806;52.250;21.066;2022-08-25T11:33:31;27.50;67.30
21294;DHT22;10806;52.250;21.066;2022-08-25T11:36:12;27.50;69.70
21294;DHT22;10806;52.250;21.066;2022-08-25T11:39:03;27.50;70.50
21294;DHT22;10806;52.250;21.066;2022-08-25T11:47:26;27.50;69.20
21294;DHT22;10806;52.250;21.066;2022-08-25T11:49:58;27.40;70.20
21294;DHT22;10806;52.250;21.066;2022-08-25T11:55:19;27.50;71.00
21294;DHT22;10806;52.250;21.066;2022-08-25T11:57:46;27.50;71.60
21294;DHT22;10806;52.250;21.066;2022-08-25T12:00:39;27.50;72.20
21294;DHT22;10806;52.250;21.066;2022-08-25T12:06:20;27.50;72.30
21294;DHT22;10806;52.250;21.066;2022-08-25T12:08:48;27.50;72.70
21294;DHT22;10806;52.250;21.066;2022-08-25T12:11:54;27.50;72.20
21294;DHT22;10806;52.250;21.066;2022-08-25T12:38:11;27.40;62.60
21294;DHT22;10806;52.250;21.066;2022-08-25T12:40:57;27.40;63.00
21294;DHT22;10806;52.250;21.066;2022-08-25T12:43:27;27.40;59.70
21294;DHT22;10806;52.250;21.066;2022-08-25T12:48:59;27.40;59.10
21294;DHT22;10806;52.250;21.066;2022-08-25T12:56:40;27.40;52.20
21294;DHT22;10806;52.250;21.066;2022-08-25T12:59:20;27.40;51.20
21294;DHT22;10806;52.250;21.066;2022-08-25T13:05:04;27.40;50.70
21294;DHT22;10806;52.250;21.066;2022-08-25T13:07:56;27.40;49.40
21294;DHT22;10806;52.250;21.066;2022-08-25T13:11:02;27.40;47.50
21294;DHT22;10806;52.250;21.066;2022-08-25T13:14:02;27.40;46.60
21294;DHT22;10806;52.250;21.066;2022-08-25T13:16:29;27.50;45.90
21294;DHT22;10806;52.250;21.066;2022-08-25T13:21:42;27.50;45.60
21294;DHT22;10806;52.250;21.066;2022-08-25T13:24:18;27.50;44.30
21294;DHT22;10806;52.250;21.066;2022-08-25T13:26:47;27.50;44.30
21294;DHT22;10806;52.250;21.066;2022-08-25T13:29:19;27.50;44.10
21294;DHT22;10806;52.250;21.066;2022-08-25T13:31:58;27.50;44.00
21294;DHT22;10806;52.250;21.066;2022-08-25T13:34:47;27.50;43.90
21294;DHT22;10806;52.250;21.066;2022-08-25T13:37:22;27.50;44.00
21294;DHT22;10806;52.250;21.066;2022-08-25T13:42:50;27.50;43.50
21294;DHT22;10806;52.250;21.066;2022-08-25T13:45:19;27.40;43.10
21294;DHT22;10806;52.250;21.066;2022-08-25T13:47:47;27.50;42.90
21294;DHT22;10806;52.250;21.066;2022-08-25T13:52:40;27.50;42.30
21294;DHT22;10806;52.250;21.066;2022-08-25T13:55:09;27.50;41.60
21294;DHT22;10806;52.250;21.066;2022-08-25T13:57:34;27.50;41.70
21294;DHT22;10806;52.250;21.066;2022-08-25T14:00:05;27.50;41.60
21294;DHT22;10806;52.250;21.066;2022-08-25T14:05:04;27.50;41.60
21294;DHT22;10806;52.250;21.066;2022-08-25T14:07:30;27.50;41.20
21294;DHT22;10806;52.250;21.066;2022-08-25T14:10:05;27.50;40.90
21294;DHT22;10806;52.250;21.066;2022-08-25T14:12:46;27.50;41.00
21294;DHT22;10806;52.250;21.066;2022-08-25T14:18:12;27.50;40.50
21294;DHT22;10806;52.250;21.066;2022-08-25T14:20:44;27.50;41.10
21294;DHT22;10806;52.250;21.066;2022-08-25T14:23:13;27.50;41.40
21294;DHT22;10806;52.250;21.066;2022-08-25T14:25:39;27.50;41.40
21294;DHT22;10806;52.250;21.066;2022-08-25T14:28:09;27.50;41.30
21294;DHT22;10806;52.250;21.066;2022-08-25T14:30:39;27.50;42.20
21294;DHT22;10806;52.250;21.066;2022-08-25T14:33:07;27.50;41.70
21294;DHT22;10806;52.250;21.066;2022-08-25T14:35:33;27.50;41.70
21294;DHT22;10806;52.250;21.066;2022-08-25T14:38:09;27.50;42.10
21294;DHT22;10806;52.250;21.066;2022-08-25T14:40:35;27.50;42.20
21294;DHT22;10806;52.250;21.066;2022-08-25T14:43:01;27.50;42.10
21294;DHT22;10806;52.250;21.066;2022-08-25T14:45:27;27.50;42.80
21294;DHT22;10806;52.250;21.066;2022-08-25T14:47:54;27.50;42.40
21294;DHT22;10806;52.250;21.066;2022-08-25T14:50:21;27.50;42.30
21294;DHT22;10806;52.250;21.066;2022-08-25T14:52:47;27.50;42.30
21294;DHT22;10806;52.250;21.066;2022-08-25T14:55:13;27.50;42.40
21294;DHT22;10806;52.250;21.066;2022-08-25T14:57:38;27.50;42.30
21294;DHT22;10806;52.250;21.066;2022-08-25T15:00:05;27.50;42.20
21294;DHT22;10806;52.250;21.066;2022-08-25T15:02:35;27.50;42.20
21294;DHT22;10806;52.250;21.066;2022-08-25T15:05:04;27.50;42.20
21294;DHT22;10806;52.250;21.066;2022-08-25T15:07:33;27.50;42.00
21294;DHT22;10806;52.250;21.066;2022-08-25T15:10:18;27.50;41.90
21294;DHT22;10806;52.250;21.066;2022-08-25T15:12:44;27.50;41.90
21294;DHT22;10806;52.250;21.066;2022-08-25T15:15:09;27.50;41.70
21294;DHT22;10806;52.250;21.066;2022-08-25T15:17:36;27.50;41.70
21294;DHT22;10806;52.250;21.066;2022-08-25T15:20:03;27.50;41.30
21294;DHT22;10806;52.250;21.066;2022-08-25T15:22:29;27.50;41.60
21294;DHT22;10806;52.250;21.066;2022-08-25T15:24:55;27.40;42.30
21294;DHT22;10806;52.250;21.066;2022-08-25T15:27:21;27.40;42.20
21294;DHT22;10806;52.250;21.066;2022-08-25T15:29:47;27.50;42.40
21294;DHT22;10806;52.250;21.066;2022-08-25T15:32:12;27.50;42.40
21294;DHT22;10806;52.250;21.066;2022-08-25T15:34:39;27.40;43.10
21294;DHT22;10806;52.250;21.066;2022-08-25T15:37:14;27.40;43.00
21294;DHT22;10806;52.250;21.066;2022-08-25T15:39:41;27.40;43.30
21294;DHT22;10806;52.250;21.066;2022-08-25T15:42:08;27.40;45.20
21294;DHT22;10806;52.250;21.066;2022-08-25T15:44:34;27.40;45.60
21294;DHT22;10806;52.250;21.066;2022-08-25T15:47:00;27.40;45.70
21294;DHT22;10806;52.250;21.066;2022-08-25T15:49:26;27.40;46.00
21294;DHT22;10806;52.250;21.066;2022-08-25T15:51:53;27.40;45.90
21294;DHT22;10806;52.250;21.066;2022-08-25T15:54:19;27.40;46.00
21294;DHT22;10806;52.250;21.066;2022-08-25T15:56:45;27.40;45.80
21294;DHT22;10806;52.250;21.066;2022-08-25T15:59:12;27.30;45.90
21294;DHT22;10806;52.250;21.066;2022-08-25T16:01:38;27.30;45.90
21294;DHT22;10806;52.250;21.066;2022-08-25T16:04:05;27.30;46.20
21294;DHT22;10806;52.250;21.066;2022-08-25T16:06:30;27.30;46.50
21294;DHT22;10806;52.250;21.066;2022-08-25T16:08:56;27.30;46.50
21294;DHT22;10806;52.250;21.066;2022-08-25T16:11:24;27.30;46.80
21294;DHT22;10806;52.250;21.066;2022-08-25T16:13:51;27.30;47.10
21294;DHT22;10806;52.250;21.066;2022-08-25T16:16:18;27.30;47.10
21294;DHT22;10806;52.250;21.066;2022-08-25T16:18:45;27.30;47.30
21294;DHT22;10806;52.250;21.066;2022-08-25T16:21:13;27.30;47.50
21294;DHT22;10806;52.250;21.066;2022-08-25T16:23:39;27.30;47.60
21294;DHT22;10806;52.250;21.066;2022-08-25T16:26:07;27.30;47.70
21294;DHT22;10806;52.250;21.066;2022-08-25T16:28:38;27.30;47.90
21294;DHT22;10806;52.250;21.066;2022-08-25T16:31:05;27.30;48.00
21294;DHT22;10806;52.250;21.066;2022-08-25T16:33:32;27.30;48.10
21294;DHT22;10806;52.250;21.066;2022-08-25T16:36:09;27.30;48.30
21294;DHT22;10806;52.250;21.066;2022-08-25T16:38:38;27.30;48.30
21294;DHT22;10806;52.250;21.066;2022-08-25T16:41:05;27.30;48.50
21294;DHT22;10806;52.250;21.066;2022-08-25T16:43:31;27.30;48.60
21294;DHT22;10806;52.250;21.066;2022-08-25T16:46:01;27.30;48.70
21294;DHT22;10806;52.250;21.066;2022-08-25T16:48:27;27.30;48.80
21294;DHT22;10806;52.250;21.066;2022-08-25T16:50:53;27.30;48.90
21294;DHT22;10806;52.250;21.066;2022-08-25T16:53:18;27.30;49.10
21294;DHT22;10806;52.250;21.066;2022-08-25T16:56:03;27.30;49.50
21294;DHT22;10806;52.250;21.066;2022-08-25T16:58:30;27.30;49.50
21294;DHT22;10806;52.250;21.066;2022-08-25T17:01:09;27.30;49.90
21294;DHT22;10806;52.250;21.066;2022-08-25T17:03:37;27.30;50.10
21294;DHT22;10806;52.250;21.066;2022-08-25T17:06:03;27.30;50.20
21294;DHT22;10806;52.250;21.066;2022-08-25T17:08:28;27.30;50.20
21294;DHT22;10806;52.250;21.066;2022-08-25T17:11:07;27.30;49.80
21294;DHT22;10806;52.250;21.066;2022-08-25T17:13:33;27.30;50.40
21294;DHT22;10806;52.250;21.066;2022-08-25T17:15:59;27.30;50.80
21294;DHT22;10806;52.250;21.066;2022-08-25T17:18:27;27.30;51.10
21294;DHT22;10806;52.250;21.066;2022-08-25T17:21:05;27.30;51.80
21294;DHT22;10806;52.250;21.066;2022-08-25T17:23:32;27.30;52.70